Impacts TAF Board
For situational awareness. Not to be used for flight planning purposes.
IDs:

KCLT - Charlotte/Douglas In, NC, US

Issued at 0520 UTC 17 Feb 2019
Updated at 0928 UTC 17 Feb 2019
Potential Impact None Slight Moderate High
Time0852Z 17/10Z 17/11Z 17/12Z 17/13Z 17/14Z 17/15Z 17/16Z 17/17Z 17/18Z 17/19Z 17/20Z 17/21Z 17/22Z>>
Type OBS PRVL PRVL PRVL PRVL
  [TEMP]  
PRVL
  [TEMP]  
PRVL PRVL PRVL PRVL PRVL PRVL PRVL PRVL
VIS 10 >6 >6 >6 >6
  [4]  
>6
  [4]  
>6 >6 >6 5 5 5 4 4
CIG 44 25 25 25 25
  [7]  
25
  [7]  
25 25 25 10 10 10 5 5
Cover BKN OVC OVC OVC OVC
  [OVC]  
OVC
  [OVC]  
OVC OVC OVC OVC OVC OVC OVC OVC
FltCat VFR MVFR MVFR MVFR MVFR
  [IFR]  
MVFR
  [IFR]  
MVFR MVFR MVFR MVFR MVFR MVFR IFR IFR
WX -- -- -- -- --
  [-RA -DZ]  
--
  [-RA -DZ]  
-- -- -- -SHRA -SHRA -SHRA -SHRA -SHRA
WDir 60 70 70 70 70
[70]
70
[70]
70 70 70 80 80 80 VRB VRB
WSpd 8 6 6 6 6
  [6]  
6
  [6]  
6 6 6 3 3 3 3 3
WGst -- -- -- -- --
  [--]  
--
  [--]  
-- -- -- -- -- -- -- --
Raw TAF
KCLT 170520Z 1706/1812 07006KT P6SM OVC025
  TEMPO 1713/1715 4SM -RADZ OVC007
  FM171800 08003KT 5SM -SHRA OVC010
  FM172100 VRB03KT 4SM -SHRA OVC005
  FM180000 VRB03KT 2SM SHRA BR OVC004
  FM180700 25003KT 2SM -SHRA BR OVC007


Raw METAR
KCLT 170852Z 06008KT 10SM BKN044 BKN060 05/M01 A3001 RMK AO2 SLP163 T00501006 53006
KCLT 170752Z 06008KT 10SM BKN050 06/01 A2999 RMK AO2 SLP156 T00560006
KCLT 170652Z 06010KT 10SM FEW025 BKN055 06/01 A2997 RMK AO2 PRESFR SLP148 T00560006

METAR Board
Radar Display
Forecast Discussion
For situational awareness. Not to be used for flight planning purposes.